createdAt,value
2022-12-03T00:03:08.445Z,6.09
2022-12-03T00:08:55.298Z,6.16
2022-12-03T00:14:44.896Z,6.13
2022-12-03T00:20:31.913Z,6.18
2022-12-03T00:26:20.098Z,6.13
2022-12-03T00:32:09.087Z,6.08
2022-12-03T00:37:56.190Z,6.01
2022-12-03T00:43:43.202Z,6.16
2022-12-03T00:49:32.005Z,6.07
2022-12-03T00:55:18.977Z,6.18
2022-12-03T01:01:09.002Z,6.09
2022-12-03T01:06:55.954Z,6.05
2022-12-03T01:12:42.807Z,5.99
2022-12-03T01:18:29.814Z,5.97
2022-12-03T01:24:17.234Z,6.12
2022-12-03T01:30:05.290Z,6.09
2022-12-03T01:35:52.084Z,6.12
2022-12-03T01:41:39.482Z,6.02
2022-12-03T01:47:32.526Z,5.96
2022-12-03T01:53:23.007Z,5.86
2022-12-03T01:59:14.874Z,5.84
2022-12-03T02:05:06.055Z,5.72
2022-12-03T02:10:52.975Z,5.60
2022-12-03T02:16:42.309Z,5.71
2022-12-03T02:23:12.103Z,5.69
2022-12-03T02:28:58.836Z,5.76
2022-12-03T02:34:46.496Z,5.71
2022-12-03T02:40:33.989Z,5.73
2022-12-03T02:46:20.896Z,5.81
2022-12-03T02:52:07.950Z,5.74
2022-12-03T02:57:55.100Z,5.79
2022-12-03T03:03:42.087Z,5.69
2022-12-03T03:09:29.137Z,5.89
2022-12-03T03:15:16.329Z,5.88
2022-12-03T03:21:04.676Z,5.79
2022-12-03T03:26:51.675Z,5.81
2022-12-03T03:32:40.616Z,5.82
2022-12-03T03:38:29.329Z,5.88
2022-12-03T03:44:16.156Z,5.77
2022-12-03T03:50:03.710Z,5.86
2022-12-03T03:55:51.294Z,5.83
2022-12-03T04:01:38.535Z,5.85
2022-12-03T04:07:29.921Z,5.80
2022-12-03T04:13:16.678Z,5.76
2022-12-03T04:19:03.435Z,5.74
2022-12-03T04:24:50.286Z,5.84
2022-12-03T04:30:37.464Z,5.86
2022-12-03T04:36:24.198Z,5.70
2022-12-03T04:42:11.131Z,5.69
2022-12-03T04:47:58.453Z,5.68
2022-12-03T04:53:47.209Z,5.80
2022-12-03T04:59:37.428Z,5.66
2022-12-03T05:05:24.936Z,5.67
2022-12-03T05:11:14.140Z,5.72
2022-12-03T05:17:08.535Z,5.61
2022-12-03T05:23:16.442Z,5.65
2022-12-03T05:29:04.225Z,5.52
2022-12-03T05:34:51.503Z,5.46
2022-12-03T05:40:38.761Z,5.48
2022-12-03T05:46:25.755Z,5.46
2022-12-03T05:52:13.142Z,5.58
2022-12-03T05:57:59.804Z,5.38
2022-12-03T06:03:46.729Z,5.44
2022-12-03T06:09:33.688Z,5.57
2022-12-03T06:15:20.979Z,5.67
2022-12-03T06:21:07.673Z,5.74
2022-12-03T06:26:54.406Z,5.75
2022-12-03T06:32:41.368Z,5.71
2022-12-03T06:38:28.064Z,5.70
2022-12-03T06:44:15.212Z,5.74
2022-12-03T06:50:01.978Z,5.83
2022-12-03T06:55:48.747Z,5.63
2022-12-03T07:01:35.567Z,5.75
2022-12-03T07:07:22.330Z,5.67
2022-12-03T07:13:09.318Z,5.60
2022-12-03T07:18:56.158Z,5.82
2022-12-03T07:24:43.097Z,5.79
2022-12-03T07:30:30.282Z,5.69
2022-12-03T07:36:17.006Z,5.76
2022-12-03T07:42:03.884Z,6.00
2022-12-03T07:47:51.006Z,5.74
2022-12-03T07:53:37.859Z,5.77
2022-12-03T07:59:24.797Z,5.78
2022-12-03T08:05:12.158Z,5.74
2022-12-03T08:11:00.489Z,5.80
2022-12-03T08:16:53.701Z,5.82
2022-12-03T08:22:42.080Z,5.95
2022-12-03T08:28:29.012Z,6.01
2022-12-03T08:34:17.882Z,6.17
2022-12-03T08:40:22.591Z,6.15
2022-12-03T08:46:20.429Z,6.21
2022-12-03T08:52:15.906Z,6.06
2022-12-03T08:58:24.396Z,6.13
2022-12-03T09:04:17.435Z,6.07
2022-12-03T09:10:04.568Z,6.28
2022-12-03T09:15:51.387Z,6.46
2022-12-03T09:21:38.140Z,6.27
2022-12-03T09:27:24.902Z,6.41
2022-12-03T09:33:11.912Z,6.32
2022-12-03T09:38:58.795Z,6.46
2022-12-03T09:44:45.669Z,6.54
2022-12-03T09:50:32.855Z,6.69
2022-12-03T09:56:23.150Z,6.66
2022-12-03T10:02:30.775Z,6.82
2022-12-03T10:08:21.755Z,6.86
2022-12-03T10:14:13.968Z,6.99
2022-12-03T10:20:01.633Z,7.14
2022-12-03T10:25:57.388Z,7.03
2022-12-03T10:31:45.003Z,7.03
2022-12-03T10:37:31.956Z,7.26
2022-12-03T10:43:19.351Z,7.16
2022-12-03T10:49:19.611Z,7.05
2022-12-03T10:55:06.839Z,7.32
2022-12-03T11:00:55.892Z,7.28
2022-12-03T11:06:42.657Z,7.18
2022-12-03T11:12:34.744Z,7.18
2022-12-03T11:18:36.843Z,7.41
2022-12-03T11:24:23.556Z,7.33
2022-12-03T11:30:10.636Z,7.55
2022-12-03T11:36:03.585Z,7.44
2022-12-03T11:42:25.710Z,7.49
2022-12-03T11:48:15.298Z,7.42
2022-12-03T11:54:05.530Z,7.52
2022-12-03T12:00:00.484Z,7.59
2022-12-03T12:05:47.181Z,7.42
2022-12-03T12:11:41.462Z,7.40
2022-12-03T12:17:35.975Z,7.49
2022-12-03T12:23:28.787Z,7.49
2022-12-03T12:29:15.465Z,7.54
2022-12-03T12:35:18.679Z,7.49
2022-12-03T12:41:08.059Z,7.46
2022-12-03T12:46:55.524Z,7.45
2022-12-03T12:52:53.145Z,7.62
2022-12-03T12:58:40.552Z,7.47
2022-12-03T13:04:30.617Z,7.47
2022-12-03T13:10:39.013Z,7.65
2022-12-03T13:16:30.725Z,7.64
2022-12-03T13:22:22.619Z,7.78
2022-12-03T13:28:09.379Z,7.75
2022-12-03T13:33:58.153Z,7.74
2022-12-03T13:39:50.120Z,7.68
2022-12-03T13:45:41.447Z,7.68
2022-12-03T13:51:32.338Z,7.72
2022-12-03T13:57:19.847Z,7.86
2022-12-03T14:03:06.723Z,7.57
2022-12-03T14:08:53.599Z,7.60
2022-12-03T14:14:40.543Z,7.58
2022-12-03T14:20:27.241Z,7.49
2022-12-03T14:26:13.945Z,7.45
2022-12-03T14:32:00.878Z,7.41
2022-12-03T14:38:02.867Z,7.32
2022-12-03T14:43:49.547Z,7.38
2022-12-03T14:49:36.932Z,7.39
2022-12-03T14:55:24.055Z,7.35
2022-12-03T15:01:10.932Z,7.20
2022-12-03T15:06:57.733Z,7.26
2022-12-03T15:12:44.709Z,7.24
2022-12-03T15:18:31.436Z,7.25
2022-12-03T15:24:18.179Z,7.22
2022-12-03T15:30:06.725Z,7.32
2022-12-03T15:35:53.492Z,7.18
2022-12-03T15:41:40.417Z,7.18
2022-12-03T15:47:27.199Z,7.04
2022-12-03T15:53:13.980Z,7.19
2022-12-03T15:59:01.066Z,7.14
2022-12-03T16:04:48.330Z,7.12
2022-12-03T16:10:35.249Z,7.11
2022-12-03T16:16:22.337Z,7.04
2022-12-03T16:22:09.527Z,7.06
2022-12-03T16:27:56.671Z,7.02
2022-12-03T16:33:43.404Z,7.06
2022-12-03T16:39:30.214Z,7.09
2022-12-03T16:45:29.016Z,7.03
2022-12-03T16:51:16.527Z,7.06
2022-12-03T16:57:11.001Z,6.90
2022-12-03T17:02:57.866Z,7.04
2022-12-03T17:08:49.384Z,7.10
2022-12-03T17:14:36.920Z,6.91
2022-12-03T17:20:23.732Z,6.87
2022-12-03T17:26:10.684Z,6.97
2022-12-03T17:31:57.907Z,6.87
2022-12-03T17:37:44.899Z,6.76
2022-12-03T17:43:32.118Z,6.75
2022-12-03T17:49:19.104Z,6.88
2022-12-03T17:55:12.141Z,6.73
2022-12-03T18:01:03.121Z,6.84
2022-12-03T18:06:50.602Z,6.88
2022-12-03T18:12:37.590Z,6.82
2022-12-03T18:18:24.505Z,6.78
2022-12-03T18:24:11.297Z,6.74
2022-12-03T18:29:58.210Z,6.72
2022-12-03T18:35:45.269Z,6.60
2022-12-03T18:41:33.484Z,6.62
2022-12-03T18:47:31.983Z,6.49
2022-12-03T18:53:19.739Z,6.50
2022-12-03T18:59:07.709Z,6.48
2022-12-03T19:04:54.847Z,6.45
2022-12-03T19:10:45.511Z,6.49
2022-12-03T19:16:32.708Z,6.48
2022-12-03T19:22:19.629Z,6.48
2022-12-03T19:28:07.240Z,6.32
2022-12-03T19:33:54.486Z,6.30
2022-12-03T19:39:42.256Z,6.39
2022-12-03T19:45:29.018Z,6.33
2022-12-03T19:51:33.555Z,6.43
2022-12-03T19:57:23.480Z,6.33
2022-12-03T20:03:10.779Z,6.29
2022-12-03T20:08:59.362Z,6.28
2022-12-03T20:14:46.686Z,6.20
2022-12-03T20:20:35.407Z,6.24
2022-12-03T20:26:23.051Z,6.22
2022-12-03T20:32:13.280Z,6.24
2022-12-03T20:38:00.169Z,6.17
2022-12-03T20:43:47.577Z,6.20
2022-12-03T20:49:34.384Z,6.17
2022-12-03T20:55:21.231Z,6.08
2022-12-03T21:01:15.626Z,6.21
2022-12-03T21:07:03.240Z,5.97
2022-12-03T21:12:50.215Z,5.94
2022-12-03T21:18:37.239Z,5.91
2022-12-03T21:24:24.046Z,5.91
2022-12-03T21:30:11.104Z,5.76
2022-12-03T21:36:00.373Z,5.73
2022-12-03T21:42:18.802Z,5.68
2022-12-03T21:47:56.494Z,5.67
2022-12-03T21:53:43.813Z,5.67
2022-12-03T21:59:30.816Z,5.59
2022-12-03T22:05:18.397Z,5.57
2022-12-03T22:11:07.706Z,5.54
2022-12-03T22:16:54.567Z,5.46
2022-12-03T22:22:41.336Z,5.47
2022-12-03T22:28:28.243Z,5.46
2022-12-03T22:34:15.152Z,5.52
2022-12-03T22:40:02.108Z,5.62
2022-12-03T22:45:53.685Z,5.38
2022-12-03T22:51:40.870Z,5.54
2022-12-03T22:57:27.697Z,5.41
2022-12-03T23:03:19.614Z,5.48
2022-12-03T23:09:07.391Z,5.64
2022-12-03T23:14:55.288Z,5.69
2022-12-03T23:20:51.693Z,5.72
2022-12-03T23:26:39.499Z,5.69
2022-12-03T23:32:26.452Z,5.79
2022-12-03T23:38:13.365Z,5.68
2022-12-03T23:44:00.730Z,5.87
2022-12-03T23:49:47.484Z,5.73
2022-12-03T23:55:34.269Z,5.74
